Time;durP1;ratioP1;P1;durP2;ratioP2;P2;SDS_P1;SDS_P2;PMS_P1;PMS_P2;Temp;Humidity;BMP_temperature;BMP_pressure;BME280_temperature;BME280_humidity;BME280_pressure;Samples;Min_cycle;Max_cycle;Signal;HPM_P1;HPM_P2
2022/09/29 00:01:20;;;;;;;21.83;11.15;;;;;;;5.49;100.00;99818.19;5081618;28;20036;-66
2022/09/29 00:03:45;;;;;;;21.92;11.15;;;;;;;5.49;100.00;99823.44;5084446;28;20024;-65
2022/09/29 00:06:17;;;;;;;21.80;11.48;;;;;;;5.45;100.00;99819.03;5082567;28;20036;-66
2022/09/29 00:08:43;;;;;;;21.75;11.55;;;;;;;5.44;100.00;99814.63;5082126;28;20505;-66
2022/09/29 00:11:11;;;;;;;21.48;10.75;;;;;;;5.40;100.00;99828.56;5082690;28;20077;-66
2022/09/29 00:13:37;;;;;;;23.23;13.40;;;;;;;5.38;100.00;99831.19;5082956;28;20429;-66
2022/09/29 00:16:03;;;;;;;22.13;11.88;;;;;;;5.33;100.00;99829.38;5083768;28;20032;-67
2022/09/29 00:18:30;;;;;;;22.95;12.85;;;;;;;5.32;100.00;99818.03;5081568;28;20074;-66
2022/09/29 00:21:05;;;;;;;22.45;11.57;;;;;;;5.32;100.00;99822.41;5084682;28;20024;-66
2022/09/29 00:23:32;;;;;;;22.02;12.00;;;;;;;5.28;100.00;99820.63;5081959;28;20024;-66
2022/09/29 00:26:09;;;;;;;23.58;13.15;;;;;;;5.28;100.00;99818.00;5082862;28;20032;-66
2022/09/29 00:28:36;;;;;;;26.02;15.10;;;;;;;5.21;100.00;99822.28;5082136;28;20025;-66
2022/09/29 00:31:03;;;;;;;22.85;12.00;;;;;;;5.09;100.00;99823.03;5083719;28;20035;-66
2022/09/29 00:33:33;;;;;;;22.75;12.43;;;;;;;5.08;100.00;99821.28;5081639;28;20021;-67
2022/09/29 00:36:10;;;;;;;21.75;12.00;;;;;;;5.04;100.00;99809.03;5083774;28;20107;-66
2022/09/29 00:38:36;;;;;;;22.65;12.57;;;;;;;4.97;100.00;99809.84;5082675;28;20029;-66
2022/09/29 00:41:03;;;;;;;23.52;12.88;;;;;;;5.02;100.00;99810.75;5083772;28;20027;-66
2022/09/29 00:43:50;;;;;;;23.85;12.80;;;;;;;4.98;100.00;99822.03;5081498;28;20386;-66
2022/09/29 00:46:28;;;;;;;22.80;12.13;;;;;;;4.94;100.00;99808.06;5081431;28;20421;-67
2022/09/29 00:48:58;;;;;;;23.90;12.80;;;;;;;4.98;100.00;99814.19;5084488;28;20050;-67
2022/09/29 00:51:25;;;;;;;22.48;12.25;;;;;;;4.96;100.00;99819.41;5085173;28;20029;-66
2022/09/29 00:53:50;;;;;;;22.27;12.02;;;;;;;4.88;100.00;99818.47;5091407;28;20119;-67
2022/09/29 00:56:18;;;;;;;21.70;11.15;;;;;;;4.88;100.00;99816.72;5087956;28;20070;-67
2022/09/29 00:58:53;;;;;;;21.15;10.48;;;;;;;4.81;100.00;99817.50;5090095;28;20044;-66
2022/09/29 01:01:19;;;;;;;21.33;10.77;;;;;;;4.72;100.00;99813.03;5087802;28;20379;-66
2022/09/29 01:03:47;;;;;;;22.00;11.57;;;;;;;4.74;100.00;99814.81;5090185;28;20031;-66
2022/09/29 01:06:22;;;;;;;22.35;10.85;;;;;;;4.71;100.00;99810.41;5088078;28;20036;-66
2022/09/29 01:08:56;;;;;;;21.92;10.40;;;;;;;4.67;100.00;99814.72;5090423;28;20116;-66
2022/09/29 01:11:22;;;;;;;23.13;11.05;;;;;;;4.69;100.00;99806.91;5087701;28;20039;-67
2022/09/29 01:13:49;;;;;;;21.48;11.00;;;;;;;4.62;100.00;99805.06;5090289;28;20024;-66
2022/09/29 01:16:15;;;;;;;22.25;11.68;;;;;;;4.64;100.00;99800.72;5087909;28;20031;-67
2022/09/29 01:18:42;;;;;;;21.80;11.90;;;;;;;4.66;100.00;99809.47;5089474;28;20115;-67
2022/09/29 01:21:24;;;;;;;21.65;11.52;;;;;;;4.54;100.00;99813.72;5088973;28;20024;-67
2022/09/29 01:23:58;;;;;;;23.80;13.73;;;;;;;4.49;100.00;99809.28;5090406;28;20483;-67
2022/09/29 01:26:42;;;;;;;23.40;12.77;;;;;;;4.53;100.00;99806.72;5086995;28;20063;-67
2022/09/29 01:29:10;;;;;;;21.88;12.18;;;;;;;4.52;100.00;99811.94;5088589;28;20115;-67
2022/09/29 01:31:59;;;;;;;21.85;12.07;;;;;;;4.48;100.00;99816.22;5089511;28;20024;-67
2022/09/29 01:34:30;;;;;;;22.30;12.45;;;;;;;4.42;100.00;99812.66;5087164;28;20417;-66
2022/09/29 01:37:20;;;;;;;22.05;12.35;;;;;;;4.43;100.00;99817.94;5087045;28;20068;-67
2022/09/29 01:40:09;;;;;;;22.67;12.40;;;;;;;4.40;100.00;99811.75;5087571;28;20044;-67
2022/09/29 01:43:08;;;;;;;24.15;13.30;;;;;;;4.33;100.00;99816.03;5024968;28;20589;-66
2022/09/29 01:45:38;;;;;;;23.60;12.80;;;;;;;4.27;100.00;99819.47;5028179;28;20526;-66
2022/09/29 01:48:14;;;;;;;22.95;12.55;;;;;;;4.24;100.00;99815.91;5027106;28;20033;-67
2022/09/29 01:50:45;;;;;;;23.33;13.23;;;;;;;4.29;100.00;99814.25;5029081;28;20026;-67
2022/09/29 01:53:17;;;;;;;21.27;11.27;;;;;;;4.19;100.00;99814.13;5028648;28;20088;-67
2022/09/29 01:55:49;;;;;;;21.80;11.05;;;;;;;4.12;100.00;99820.13;5028702;28;20111;-67
2022/09/29 01:58:23;;;;;;;22.48;12.27;;;;;;;4.18;100.00;99812.38;5027147;28;20034;-67
2022/09/29 02:00:53;;;;;;;22.33;12.30;;;;;;;4.06;100.00;99817.41;5025014;28;20133;-67
2022/09/29 02:03:29;;;;;;;22.70;12.05;;;;;;;4.08;100.00;99818.31;5024597;28;20034;-67
2022/09/29 02:05:58;;;;;;;22.63;11.75;;;;;;;3.99;100.00;99819.06;5025131;28;20052;-67
2022/09/29 02:08:37;;;;;;;22.40;11.98;;;;;;;4.03;100.00;99825.22;5025120;28;20389;-67
2022/09/29 02:11:05;;;;;;;22.23;12.13;;;;;;;3.98;100.00;99813.81;5024834;28;20033;-66
2022/09/29 02:13:36;;;;;;;23.27;12.30;;;;;;;3.96;100.00;99820.75;5024225;28;20095;-68
2022/09/29 02:16:04;;;;;;;23.38;12.38;;;;;;;3.91;100.00;99819.81;5022116;28;20477;-66
2022/09/29 02:18:37;;;;;;;23.60;12.90;;;;;;;3.96;100.00;99813.78;5028001;28;20065;-66
2022/09/29 02:21:02;;;;;;;;;;;;;;;3.92;100.00;99813.75;5083377;28;20395;-65
2022/09/29 02:23:28;;;;;;;22.30;12.45;;;;;;;3.92;100.00;99812.00;5086468;28;19912;-69
2022/09/29 02:25:56;;;;;;;23.20;12.70;;;;;;;4.00;100.00;99812.09;5082977;28;20036;-70
2022/09/29 02:28:21;;;;;;;24.08;13.48;;;;;;;3.95;100.00;99811.16;5086966;28;20032;-71
2022/09/29 02:30:49;;;;;;;24.50;13.68;;;;;;;3.92;100.00;99817.22;5083853;28;20020;-70
2022/09/29 02:33:23;;;;;;;23.95;13.80;;;;;;;3.92;100.00;99814.59;5085694;28;20021;-71
2022/09/29 02:35:57;;;;;;;22.88;13.52;;;;;;;3.91;100.00;99825.03;5083473;28;20027;-73
2022/09/29 02:38:43;;;;;;;24.27;13.95;;;;;;;3.91;100.00;99814.59;5083113;28;20025;-67
2022/09/29 02:41:34;;;;;;;24.63;14.05;;;;;;;3.83;100.00;99823.19;5085031;28;20024;-70
2022/09/29 02:44:37;;;;;;;24.85;14.27;;;;;;;3.84;100.00;99824.97;5083472;28;20020;-69
2022/09/29 02:47:22;;;;;;;23.70;14.00;;;;;;;3.78;100.00;99824.84;5083357;28;20036;-71
2022/09/29 02:50:12;;;;;;;25.00;14.45;;;;;;;3.73;100.00;99826.53;5083655;28;20409;-70
2022/09/29 02:53:03;;;;;;;25.98;14.45;;;;;;;3.71;100.00;99827.34;5084277;28;20036;-69
2022/09/29 02:55:50;;;;;;;25.35;14.88;;;;;;;3.73;100.00;99818.69;5083128;28;20075;-67
2022/09/29 02:58:28;;;;;;;25.67;14.73;;;;;;;3.69;100.00;99821.22;5083273;28;20032;-69
2022/09/29 03:00:54;;;;;;;23.92;14.07;;;;;;;3.65;100.00;99820.28;5084887;28;20032;-69
2022/09/29 03:03:19;;;;;;;25.50;14.65;;;;;;;3.62;100.00;99820.22;5082805;28;20021;-70
2022/09/29 03:05:44;;;;;;;27.25;15.98;;;;;;;3.61;100.00;99824.59;5084925;28;20119;-69
2022/09/29 03:08:10;;;;;;;25.85;15.75;;;;;;;3.56;100.00;99822.75;5083925;28;20028;-69
2022/09/29 03:10:35;;;;;;;25.52;15.27;;;;;;;3.57;100.00;99824.50;5083979;28;20058;-70
2022/09/29 03:13:00;;;;;;;26.05;16.10;;;;;;;3.60;100.00;99827.19;5084919;28;20052;-69
2022/09/29 03:15:26;;;;;;;25.60;15.73;;;;;;;3.56;100.00;99820.13;5080963;28;20028;-70
2022/09/29 03:17:56;;;;;;;25.48;15.73;;;;;;;3.53;100.00;99823.56;5085728;28;20072;-70
2022/09/29 03:20:21;;;;;;;25.17;15.23;;;;;;;3.59;100.00;99826.28;5082145;28;20145;-67
2022/09/29 03:22:46;;;;;;;27.65;17.40;;;;;;;3.67;100.00;99823.81;5084993;28;20058;-67
2022/09/29 03:25:12;;;;;;;27.08;16.98;;;;;;;3.57;100.00;99819.25;5083539;28;20429;-67
2022/09/29 03:27:38;;;;;;;25.40;15.25;;;;;;;3.54;100.00;99819.22;5083581;28;20031;-66
2022/09/29 03:30:04;;;;;;;25.48;15.23;;;;;;;3.52;100.00;99818.31;5084528;28;20024;-67
2022/09/29 03:32:29;;;;;;;26.30;16.38;;;;;;;3.47;100.00;99819.13;5082321;28;20028;-67
2022/09/29 03:34:54;;;;;;;26.25;17.60;;;;;;;3.55;100.00;99816.63;5085294;28;20034;-67
2022/09/29 03:37:20;;;;;;;26.23;16.52;;;;;;;3.49;100.00;99821.75;5081823;28;20067;-67
2022/09/29 03:39:45;;;;;;;25.35;15.95;;;;;;;3.44;100.00;99824.31;5084600;28;20043;-67
2022/09/29 03:42:10;;;;;;;26.10;16.33;;;;;;;3.37;100.00;99822.44;5083370;28;20028;-67
2022/09/29 03:44:36;;;;;;;25.55;16.33;;;;;;;3.38;100.00;99816.38;5082776;28;20064;-67
2022/09/29 03:47:01;;;;;;;25.00;15.00;;;;;;;3.38;100.00;99833.75;5084603;28;20020;-67
2022/09/29 03:49:26;;;;;;;24.48;14.98;;;;;;;3.31;100.00;99824.94;5081675;28;20037;-67
2022/09/29 03:51:52;;;;;;;26.73;15.80;;;;;;;3.34;100.00;99822.38;5085023;28;20024;-66
2022/09/29 03:54:17;;;;;;;25.27;16.20;;;;;;;3.34;100.00;99827.59;5082071;28;20125;-66
2022/09/29 03:56:42;;;;;;;25.83;15.68;;;;;;;3.29;100.00;99829.25;5083551;28;20020;-66
2022/09/29 03:59:09;;;;;;;26.83;15.10;;;;;;;3.25;100.00;99822.22;5083574;28;20039;-66
2022/09/29 04:01:36;;;;;;;25.08;15.15;;;;;;;3.19;100.00;99829.94;5081035;28;20047;-67
2022/09/29 04:04:02;;;;;;;25.08;15.77;;;;;;;3.21;100.00;99836.97;5084066;28;20059;-67
2022/09/29 04:06:27;;;;;;;27.60;16.80;;;;;;;3.21;100.00;99836.09;5080039;28;20071;-67
2022/09/29 04:08:53;;;;;;;26.50;17.20;;;;;;;3.18;100.00;99836.91;5084476;28;20081;-67
2022/09/29 04:11:18;;;;;;;26.58;16.35;;;;;;;3.13;100.00;99843.75;5081874;28;20025;-66
2022/09/29 04:13:43;;;;;;;25.73;16.27;;;;;;;3.11;100.00;99841.13;5082183;28;20082;-67
2022/09/29 04:16:09;;;;;;;25.05;15.57;;;;;;;3.06;100.00;99845.41;5083136;28;20077;-67
2022/09/29 04:18:35;;;;;;;24.23;15.02;;;;;;;3.02;100.00;99846.19;5080778;28;20021;-67
2022/09/29 04:21:05;;;;;;;25.23;16.23;;;;;;;3.06;100.00;99848.00;5082751;28;20093;-67
2022/09/29 04:23:30;;;;;;;25.17;15.63;;;;;;;3.06;100.00;99849.72;5081193;28;20012;-67
2022/09/29 04:25:56;;;;;;;23.80;15.55;;;;;;;3.05;100.00;99843.63;5083832;28;20024;-66
2022/09/29 04:28:23;;;;;;;24.35;15.82;;;;;;;3.03;100.00;99850.56;5081328;28;20090;-67
2022/09/29 04:30:48;;;;;;;25.63;15.65;;;;;;;3.00;100.00;99857.44;5083747;28;20059;-67
2022/09/29 04:33:14;;;;;;;26.25;16.63;;;;;;;2.95;100.00;99857.34;5082100;28;20062;-67
2022/09/29 04:35:39;;;;;;;24.05;14.98;;;;;;;2.89;100.00;99855.50;5082849;28;20028;-67
2022/09/29 04:38:06;;;;;;;26.08;16.88;;;;;;;2.86;100.00;99860.66;5083191;28;20066;-67
2022/09/29 04:40:32;;;;;;;26.17;16.17;;;;;;;2.94;100.00;99855.59;5081335;28;20391;-67
2022/09/29 04:42:58;;;;;;;25.92;16.25;;;;;;;2.91;100.00;99861.66;5084566;28;20090;-67
2022/09/29 04:45:23;;;;;;;26.48;16.83;;;;;;;2.90;100.00;99857.28;5080735;28;20159;-66
2022/09/29 04:47:48;;;;;;;25.45;15.75;;;;;;;2.85;100.00;99860.63;5083869;28;20031;-67
2022/09/29 04:50:13;;;;;;;25.65;16.08;;;;;;;2.83;100.00;99870.19;5082124;28;20024;-69
2022/09/29 04:52:42;;;;;;;25.27;15.98;;;;;;;2.81;100.00;99862.31;5082265;28;20027;-69
2022/09/29 04:55:10;;;;;;;25.10;15.65;;;;;;;2.73;100.00;99859.53;5082626;28;20028;-71
2022/09/29 04:57:36;;;;;;;24.80;15.73;;;;;;;2.70;100.00;99864.69;5082170;28;20024;-72
2022/09/29 05:00:02;;;;;;;24.77;14.82;;;;;;;2.71;100.00;99861.25;5083743;28;20020;-70
2022/09/29 05:02:27;;;;;;;26.30;17.45;;;;;;;2.74;100.00;99863.03;5080748;28;20111;-68
2022/09/29 05:04:52;;;;;;;24.15;14.98;;;;;;;2.71;100.00;99865.56;5083996;28;20039;-70
2022/09/29 05:07:18;;;;;;;25.60;15.73;;;;;;;2.67;100.00;99864.63;5081166;28;20032;-69
2022/09/29 05:09:43;;;;;;;25.00;15.73;;;;;;;2.70;100.00;99863.81;5083038;28;20125;-69
2022/09/29 05:12:08;;;;;;;26.00;15.90;;;;;;;2.61;100.00;99875.81;5082552;28;20409;-71
2022/09/29 05:14:34;;;;;;;25.38;15.10;;;;;;;2.56;100.00;99887.00;5081290;28;20029;-69
2022/09/29 05:16:59;;;;;;;25.50;15.85;;;;;;;2.54;100.00;99888.72;5084294;28;20091;-69
2022/09/29 05:19:24;;;;;;;24.90;15.68;;;;;;;2.58;100.00;99880.97;5080415;28;20020;-70
2022/09/29 05:21:50;;;;;;;25.95;16.15;;;;;;;2.51;100.00;99886.03;5083437;28;20025;-69
2022/09/29 05:24:15;;;;;;;25.20;15.65;;;;;;;2.55;100.00;99893.06;5081672;28;20042;-71
2022/09/29 05:26:41;;;;;;;24.90;16.13;;;;;;;2.47;100.00;99892.03;5081988;28;20060;-70
2022/09/29 05:29:06;;;;;;;25.95;16.48;;;;;;;2.56;100.00;99893.13;5080276;28;20020;-65
2022/09/29 05:31:31;;;;;;;25.20;15.90;;;;;;;2.55;100.00;99890.47;5089304;28;20036;-67
2022/09/29 05:33:57;;;;;;;26.63;15.68;;;;;;;2.53;100.00;99898.25;5087196;28;20527;-66
2022/09/29 05:36:23;;;;;;;25.02;15.65;;;;;;;2.56;100.00;99900.06;5085458;28;20055;-67
2022/09/29 05:38:48;;;;;;;27.02;16.60;;;;;;;2.59;100.00;99900.13;5089420;28;20028;-65
2022/09/29 05:41:21;;;;;;;26.13;15.82;;;;;;;2.57;100.00;99900.09;5088427;28;20039;-66
2022/09/29 05:43:46;;;;;;;;;;;;;;;2.56;100.00;99905.28;5086608;28;20139;-65
2022/09/29 05:46:12;;;;;;;26.38;15.88;;;;;;;2.60;100.00;99909.72;5087939;28;20006;-66
2022/09/29 05:48:38;;;;;;;26.73;16.25;;;;;;;2.58;100.00;99901.00;5090907;28;20035;-64
2022/09/29 05:51:14;;;;;;;24.13;15.68;;;;;;;2.60;100.00;99905.38;5091572;28;20098;-65
2022/09/29 05:53:41;;;;;;;26.42;15.45;;;;;;;2.56;100.00;99902.66;5091448;28;20470;-66
2022/09/29 05:56:08;;;;;;;25.40;15.82;;;;;;;2.61;100.00;99907.13;5090577;28;20489;-65
2022/09/29 05:58:35;;;;;;;23.88;14.20;;;;;;;2.64;100.00;99908.94;5089299;28;20020;-66
2022/09/29 06:01:08;;;;;;;27.27;17.48;;;;;;;2.66;100.00;99915.06;5089343;28;20544;-66
2022/09/29 06:03:34;;;;;;;27.55;17.98;;;;;;;2.71;100.00;99917.75;5088485;28;20032;-65
2022/09/29 06:06:14;;;;;;;27.58;18.27;;;;;;;2.70;100.00;99916.91;5087797;28;20032;-66
2022/09/29 06:08:40;;;;;;;26.15;16.88;;;;;;;2.71;100.00;99923.88;5088098;28;20490;-65
2022/09/29 06:11:07;;;;;;;25.88;17.02;;;;;;;2.76;100.00;99921.38;5088605;28;20028;-65
2022/09/29 06:13:36;;;;;;;27.80;17.50;;;;;;;2.84;100.00;99921.53;5090981;28;20122;-66
2022/09/29 06:16:01;;;;;;;27.80;17.77;;;;;;;2.81;100.00;99929.28;5087962;28;20123;-66
2022/09/29 06:18:26;;;;;;;26.38;17.70;;;;;;;2.85;100.00;99928.50;5088245;28;20107;-64
2022/09/29 06:20:52;;;;;;;27.13;18.17;;;;;;;2.88;100.00;99931.19;5088333;28;20366;-64
2022/09/29 06:23:17;;;;;;;27.00;17.42;;;;;;;2.92;100.00;99933.88;5085783;28;20028;-63
2022/09/29 06:25:42;;;;;;;29.80;18.92;;;;;;;3.01;100.00;99930.59;5090314;28;20036;-65
2022/09/29 06:28:07;;;;;;;32.85;19.52;;;;;;;3.07;100.00;99938.56;5086860;28;20056;-66
2022/09/29 06:30:33;;;;;;;29.92;20.40;;;;;;;3.16;100.00;99936.97;5091607;28;20024;-64
2022/09/29 06:32:58;;;;;;;29.42;20.65;;;;;;;3.20;100.00;99934.44;5088646;28;20086;-65
2022/09/29 06:38:08;;;;;;;33.38;23.83;;;;;;;3.40;100.00;99947.91;5082772;28;20113;-66
2022/09/29 06:40:36;;;;;;;34.55;24.25;;;;;;;3.49;100.00;99941.97;5087781;28;20056;-66
2022/09/29 06:43:01;;;;;;;33.70;23.60;;;;;;;3.55;100.00;99951.66;5070961;28;20028;-66
2022/09/29 06:45:27;;;;;;;36.67;26.48;;;;;;;3.67;100.00;99957.13;5085876;28;20042;-66
2022/09/29 06:47:58;;;;;;;35.10;25.42;;;;;;;3.69;100.00;99954.53;5084731;28;20033;-67
2022/09/29 06:50:23;;;;;;;35.50;25.45;;;;;;;3.72;100.00;99958.06;5092029;28;20428;-68
2022/09/29 06:52:49;;;;;;;37.97;28.88;;;;;;;3.83;100.00;99963.50;5092204;28;20080;-66
2022/09/29 06:55:14;;;;;;;36.92;27.25;;;;;;;3.90;100.00;99956.63;5088953;28;20030;-66
2022/09/29 06:57:39;;;;;;;39.53;29.25;;;;;;;4.01;100.00;99952.47;5087514;28;20039;-66
2022/09/29 07:00:06;;;;;;;40.47;30.83;;;;;;;4.11;100.00;99959.63;5086985;28;20035;-66
2022/09/29 07:02:31;;;;;;;41.90;31.52;;;;;;;4.28;100.00;99961.63;5090866;28;20044;-65
2022/09/29 07:04:56;;;;;;;39.38;29.92;;;;;;;4.34;100.00;99964.34;5084772;28;20132;-67
2022/09/29 07:07:21;;;;;;;41.78;31.10;;;;;;;4.42;100.00;99967.94;5085522;28;20596;-67
2022/09/29 07:09:47;;;;;;;41.78;31.52;;;;;;;4.50;100.00;99968.97;5086150;28;20487;-66
2022/09/29 07:12:12;;;;;;;42.30;32.63;;;;;;;4.56;100.00;99970.78;5088335;28;20016;-66
2022/09/29 07:14:37;;;;;;;43.28;30.92;;;;;;;4.66;100.00;99977.03;5086796;28;20028;-66
2022/09/29 07:17:04;;;;;;;48.95;31.73;;;;;;;4.78;100.00;99974.59;5086112;28;20375;-67
2022/09/29 07:19:29;;;;;;;42.22;32.45;;;;;;;4.88;100.00;99973.84;5085268;28;20032;-67
2022/09/29 07:21:55;;;;;;;42.65;31.73;;;;;;;4.98;100.00;99981.81;5086143;28;20023;-67
2022/09/29 07:24:20;;;;;;;42.65;31.20;;;;;;;5.06;100.00;99981.06;5087514;28;20039;-68
2022/09/29 07:26:45;;;;;;;39.53;30.05;;;;;;;5.11;100.00;99988.13;5085714;28;20124;-67
2022/09/29 07:29:11;;;;;;;39.28;29.38;;;;;;;5.18;100.00;99990.81;5086702;28;20107;-67
2022/09/29 07:31:37;;;;;;;38.97;29.75;;;;;;;5.30;100.00;99992.75;5083294;28;20107;-67
2022/09/29 07:34:03;;;;;;;38.80;29.27;;;;;;;5.33;100.00;99987.53;5084571;28;20032;-67
2022/09/29 07:36:28;;;;;;;40.20;29.80;;;;;;;5.43;100.00;99991.13;5081900;28;20076;-67
2022/09/29 07:38:53;;;;;;;38.15;29.10;;;;;;;5.47;100.00;99987.69;5085340;28;20073;-68
2022/09/29 07:41:20;;;;;;;38.67;28.75;;;;;;;5.60;100.00;100007.06;5082152;28;20463;-68
2022/09/29 07:43:46;;;;;;;36.80;27.38;;;;;;;5.72;100.00;100001.06;5084646;28;20032;-67
2022/09/29 07:46:12;;;;;;;37.75;26.85;;;;;;;5.82;100.00;99996.81;5083186;28;20039;-67
2022/09/29 07:48:37;;;;;;;35.58;26.02;;;;;;;5.93;100.00;100000.41;5083106;28;20025;-67
2022/09/29 07:51:12;;;;;;;34.58;25.75;;;;;;;6.08;100.00;100007.59;5084564;28;20012;-67
2022/09/29 07:53:38;;;;;;;34.80;24.60;;;;;;;6.14;100.00;100012.00;5083044;28;20029;-67
2022/09/29 07:56:05;;;;;;;35.83;24.25;;;;;;;6.28;100.00;100011.25;5084020;28;20031;-67
2022/09/29 07:58:32;;;;;;;32.92;23.58;;;;;;;6.36;100.00;100016.56;5081793;28;20047;-67
2022/09/29 08:00:58;;;;;;;33.50;23.33;;;;;;;6.41;100.00;100016.63;5080531;28;20031;-66
2022/09/29 08:03:24;;;;;;;33.08;23.02;;;;;;;6.52;100.00;100009.69;5077871;28;20027;-68
2022/09/29 08:05:51;;;;;;;32.92;21.92;;;;;;;6.59;100.00;100014.13;5080168;28;20035;-68
2022/09/29 08:08:16;;;;;;;31.73;22.20;;;;;;;6.67;100.00;100013.31;5086494;28;20024;-65
2022/09/29 08:10:42;;;;;;;33.28;22.05;;;;;;;6.80;100.00;100020.38;5084964;28;20039;-67
2022/09/29 08:13:08;;;;;;;32.90;22.15;;;;;;;6.87;100.00;100021.31;5088031;28;20096;-67
2022/09/29 08:15:33;;;;;;;30.50;20.92;;;;;;;6.91;100.00;100020.47;5082128;28;20032;-68
2022/09/29 08:17:58;;;;;;;30.73;20.98;;;;;;;7.06;100.00;100032.81;5082023;28;20099;-66
2022/09/29 08:20:25;;;;;;;32.00;20.85;;;;;;;7.10;100.00;100037.22;5076500;28;20108;-67
2022/09/29 08:22:51;;;;;;;31.63;19.45;;;;;;;7.17;100.00;100032.91;5085270;28;20497;-67
2022/09/29 08:25:16;;;;;;;30.73;20.40;;;;;;;7.23;100.00;100027.66;5085495;28;20066;-67
2022/09/29 08:27:42;;;;;;;31.08;20.00;;;;;;;7.24;100.00;100032.94;5086686;28;20028;-67
2022/09/29 08:30:09;;;;;;;30.92;20.05;;;;;;;7.20;100.00;100035.53;5089232;28;20048;-67
2022/09/29 08:32:35;;;;;;;30.83;20.88;;;;;;;7.19;100.00;100039.03;5084229;28;20028;-67
2022/09/29 08:35:00;;;;;;;30.42;20.95;;;;;;;7.10;100.00;100050.38;5090908;28;20028;-66
2022/09/29 08:37:26;;;;;;;30.25;20.00;;;;;;;7.01;100.00;100047.69;5087989;28;20033;-66
2022/09/29 08:39:51;;;;;;;29.50;19.83;;;;;;;7.00;100.00;100056.44;5086636;28;20040;-66
2022/09/29 08:42:38;;;;;;;30.95;20.60;;;;;;;7.04;100.00;100058.22;5084514;28;20012;-66
2022/09/29 08:45:10;;;;;;;30.50;20.00;;;;;;;7.07;100.00;100059.13;5083195;28;20033;-66
2022/09/29 08:47:48;;;;;;;29.92;19.77;;;;;;;7.15;100.00;100059.19;5081481;28;20070;-67
2022/09/29 08:50:39;;;;;;;29.35;19.75;;;;;;;7.24;100.00;100063.63;5077274;28;20077;-68
2022/09/29 08:53:09;;;;;;;31.73;19.83;;;;;;;7.43;100.00;100059.31;5088992;28;20047;-67
2022/09/29 08:56:03;;;;;;;30.25;19.83;;;;;;;7.75;100.00;100066.47;5086970;28;20047;-68
2022/09/29 08:58:29;;;;;;;29.27;18.88;;;;;;;8.02;100.00;100065.66;5083125;28;20112;-68
2022/09/29 09:01:11;;;;;;;28.20;18.92;;;;;;;8.28;100.00;100068.34;5084788;28;20028;-68
2022/09/29 09:03:48;;;;;;;29.25;18.20;;;;;;;8.63;100.00;100077.19;5087285;28;20028;-69
2022/09/29 09:06:29;;;;;;;28.92;17.58;;;;;;;8.80;100.00;100067.50;5085526;28;20040;-72
2022/09/29 09:08:57;;;;;;;28.30;18.05;;;;;;;9.08;100.00;100073.63;5084316;28;20424;-70
2022/09/29 09:11:34;;;;;;;26.45;16.83;;;;;;;9.38;100.00;100066.53;5084654;28;20047;-71
2022/09/29 09:14:45;;;;;;;25.70;15.52;;;;;;;9.85;100.00;100071.63;5086630;28;20024;-73
2022/09/29 09:17:48;;;;;;;27.15;15.88;;;;;;;10.18;100.00;100080.22;5028144;28;20408;-65
2022/09/29 09:20:36;;;;;;;25.10;14.90;;;;;;;10.66;100.00;100079.91;5027728;28;20037;-67
2022/09/29 09:23:10;;;;;;;25.58;14.27;;;;;;;11.08;100.00;100076.03;4972541;28;20054;-67
2022/09/29 09:25:54;;;;;;;25.52;14.60;;;;;;;11.75;100.00;100083.22;4971277;28;20093;-67
2022/09/29 09:28:36;;;;;;;24.83;13.05;;;;;;;12.16;100.00;100079.19;4973403;28;20042;-66
2022/09/29 09:31:08;;;;;;;23.10;12.43;;;;;;;12.99;100.00;100088.47;4974521;28;20054;-66
2022/09/29 09:33:46;;;;;;;23.70;12.48;;;;;;;13.82;100.00;100080.72;4974118;28;20039;-66
2022/09/29 09:36:18;;;;;;;23.00;12.30;;;;;;;14.20;100.00;100083.41;4973374;28;20185;-66
2022/09/29 09:38:48;;;;;;;23.05;12.18;;;;;;;14.35;100.00;100082.22;4973770;28;20046;-66
2022/09/29 09:41:18;;;;;;;22.90;11.80;;;;;;;15.50;100.00;100083.75;4973877;28;20047;-66
2022/09/29 09:43:55;;;;;;;21.15;10.27;;;;;;;16.96;100.00;100088.22;4973729;28;20038;-67
2022/09/29 09:46:30;;;;;;;22.38;10.10;;;;;;;17.71;100.00;100082.00;4973913;28;20481;-67
2022/09/29 09:49:01;;;;;;;20.25;9.00;;;;;;;17.69;100.00;100084.72;4973295;28;20039;-67
2022/09/29 09:51:50;;;;;;;21.23;9.32;;;;;;;18.17;100.00;100087.41;4972945;28;20038;-67
2022/09/29 09:54:28;;;;;;;19.85;7.60;;;;;;;18.78;100.00;100090.28;5012708;28;20516;-67
2022/09/29 09:56:56;;;;;;;19.27;7.13;;;;;;;18.44;100.00;100086.31;5013525;28;20083;-67
2022/09/29 09:59:48;;;;;;;17.73;6.60;;;;;;;18.57;100.00;100085.84;5028547;28;20036;-66
2022/09/29 10:02:18;;;;;;;20.52;7.45;;;;;;;18.88;99.65;100095.28;5084069;28;20387;-67
2022/09/29 10:04:43;;;;;;;17.10;6.10;;;;;;;18.86;100.00;100094.44;5087394;28;20032;-66
2022/09/29 10:07:09;;;;;;;16.65;5.20;;;;;;;18.51;99.68;100091.41;5082615;28;20527;-66
2022/09/29 10:09:34;;;;;;;14.80;5.05;;;;;;;18.64;97.19;100095.34;5087467;28;20020;-66
2022/09/29 10:12:00;;;;;;;15.43;5.05;;;;;;;18.83;100.00;100087.44;5083622;28;20040;-70
2022/09/29 10:14:27;;;;;;;16.35;5.30;;;;;;;19.04;93.76;100091.03;5086895;28;20031;-72
2022/09/29 10:17:05;;;;;;;16.80;5.45;;;;;;;20.24;78.40;100100.00;5083770;28;20032;-67
2022/09/29 10:19:56;;;;;;;16.02;5.40;;;;;;;19.93;83.24;100091.56;5086049;28;20434;-67
2022/09/29 10:22:22;;;;;;;18.80;6.40;;;;;;;20.57;68.78;100096.66;5080853;28;20038;-68
2022/09/29 10:24:47;;;;;;;13.90;4.80;;;;;;;20.96;60.79;100099.19;5086144;28;20032;-70
2022/09/29 10:27:21;;;;;;;13.35;4.60;;;;;;;21.61;53.18;100100.38;5091100;28;20020;-72
2022/09/29 10:29:51;;;;;;;14.95;4.90;;;;;;;21.74;52.23;100099.63;5085076;28;20054;-71
2022/09/29 10:32:35;;;;;;;11.20;3.85;;;;;;;22.54;44.50;100102.44;5086475;28;20024;-70
2022/09/29 10:35:16;;;;;;;10.88;3.75;;;;;;;23.01;42.00;100107.81;5083992;28;20107;-71
2022/09/29 10:37:46;;;;;;;10.80;3.45;;;;;;;23.20;41.11;100108.50;5084471;28;20044;-71
2022/09/29 10:40:20;;;;;;;11.77;3.90;;;;;;;22.94;39.52;100104.63;5085079;28;20106;-68
2022/09/29 10:42:49;;;;;;;14.35;4.75;;;;;;;22.30;42.61;100110.03;5083939;28;20034;-71
2022/09/29 10:45:22;;;;;;;13.20;4.38;;;;;;;23.23;42.40;100104.78;5085806;28;20035;-70
2022/09/29 10:48:11;;;;;;;11.88;4.10;;;;;;;23.90;42.38;100107.00;5083532;28;20078;-71
2022/09/29 10:51:01;;;;;;;12.25;4.50;;;;;;;23.52;43.88;100105.69;5083047;28;20111;-71
2022/09/29 10:53:39;;;;;;;11.45;3.90;;;;;;;24.22;40.33;100110.34;5014732;28;20065;-68
2022/09/29 10:56:30;;;;;;;13.32;3.88;;;;;;;25.32;36.28;100109.41;5020849;28;20038;-67
2022/09/29 10:59:01;;;;;;;9.88;3.55;;;;;;;24.74;37.32;100116.03;5024013;28;20540;-67
2022/09/29 11:01:30;;;;;;;11.35;3.90;;;;;;;25.28;37.07;100110.56;5018418;28;20952;-68
2022/09/29 11:04:04;;;;;;;12.20;4.00;;;;;;;24.70;36.12;100118.94;5014435;28;20033;-67
2022/09/29 11:06:33;;;;;;;12.43;4.22;;;;;;;25.02;35.14;100115.91;5015454;28;20033;-67
2022/09/29 11:09:03;;;;;;;9.68;3.90;;;;;;;25.98;34.40;100109.31;5021607;28;20061;-71
2022/09/29 11:11:39;;;;;;;11.18;4.15;;;;;;;25.48;35.92;100114.63;5018707;28;20137;-69
2022/09/29 11:14:05;;;;;;;9.75;3.65;;;;;;;23.30;38.51;100108.84;5010951;28;20508;-67
2022/09/29 11:16:39;;;;;;;8.68;3.78;;;;;;;21.23;41.78;100115.72;5018489;28;20030;-66
2022/09/29 11:19:11;;;;;;;11.77;4.00;;;;;;;19.52;44.80;100113.94;5014839;28;20523;-66
2022/09/29 11:22:02;;;;;;;11.50;4.07;;;;;;;20.51;46.91;100113.91;5016932;28;20033;-67
2022/09/29 11:25:01;;;;;;;13.57;4.32;;;;;;;24.07;40.59;100112.19;5016335;28;20046;-73
2022/09/29 11:27:55;;;;;;;10.75;3.92;;;;;;;25.92;35.87;100109.75;5014470;28;20037;-70
2022/09/29 11:30:25;;;;;;;13.30;4.38;;;;;;;27.57;33.26;100118.38;5043758;28;20143;-71
2022/09/29 11:33:05;;;;;;;9.63;4.00;;;;;;;28.07;29.67;100107.19;5091460;28;20016;-73
2022/09/29 11:35:32;;;;;;;10.63;3.80;;;;;;;26.36;33.81;100113.81;5089367;28;20050;-73